Time;durP1;ratioP1;P1;durP2;ratioP2;P2;SDS_P1;SDS_P2;PMS_P1;PMS_P2;Temp;Humidity;BMP_temperature;BMP_pressure;BME280_temperature;BME280_humidity;BME280_pressure;Samples;Min_cycle;Max_cycle;Signal;HPM_P1;HPM_P2
2022/06/09 00:02:01;;;;;;;;;;;;;;;14.87;74.29;99310.47;4994508;28;20100;-54
2022/06/09 00:04:48;;;;;;;12.50;3.65;;;;;;;14.84;74.27;99313.13;4994091;28;19925;-56
2022/06/09 00:07:33;;;;;;;11.68;3.42;;;;;;;14.83;74.20;99313.13;4993035;28;20049;-54
2022/06/09 00:10:40;;;;;;;11.13;2.80;;;;;;;14.83;74.24;99313.13;4992934;28;20413;-55
2022/06/09 00:13:24;;;;;;;9.65;3.60;;;;;;;14.80;74.36;99311.44;4994173;28;20065;-55
2022/06/09 00:16:10;;;;;;;13.13;4.00;;;;;;;14.79;74.21;99314.94;4993766;28;20146;-54
2022/06/09 00:18:54;;;;;;;11.43;3.40;;;;;;;14.76;74.16;99321.06;4993023;28;20061;-54
2022/06/09 00:21:38;;;;;;;9.25;3.55;;;;;;;14.77;74.21;99319.31;4993905;28;20406;-55
2022/06/09 00:24:24;;;;;;;;;;;;;;;14.76;74.19;99315.84;4993874;28;20093;-55
2022/06/09 00:27:09;;;;;;;15.57;3.33;;;;;;;14.75;74.18;99318.47;4992951;28;20285;-54
2022/06/09 00:29:55;;;;;;;16.83;4.30;;;;;;;14.77;74.21;99320.19;4994017;28;20089;-55
2022/06/09 00:32:39;;;;;;;11.57;3.25;;;;;;;14.76;74.25;99325.41;4993951;28;20512;-55
2022/06/09 00:35:23;;;;;;;21.60;3.92;;;;;;;14.74;74.10;99321.94;4994345;28;20042;-56
2022/06/09 00:38:08;;;;;;;12.85;3.10;;;;;;;14.74;74.19;99328.03;4993857;28;20165;-54
2022/06/09 00:40:56;;;;;;;11.52;3.88;;;;;;;14.74;74.12;99325.44;4992931;28;20057;-54
2022/06/09 00:43:45;;;;;;;11.52;2.88;;;;;;;14.74;74.32;99325.44;4993004;28;20096;-54
2022/06/09 00:46:31;;;;;;;12.80;3.95;;;;;;;14.72;74.25;99327.19;4993266;28;20133;-54
2022/06/09 00:49:24;;;;;;;10.15;3.35;;;;;;;14.72;74.40;99334.13;4993081;28;20481;-55
2022/06/09 00:52:14;;;;;;;13.90;3.83;;;;;;;14.74;74.33;99332.38;4993496;28;20045;-55
2022/06/09 00:55:03;;;;;;;15.00;3.88;;;;;;;14.73;74.10;99325.44;4992655;28;20497;-55
2022/06/09 00:58:02;;;;;;;9.73;3.67;;;;;;;14.73;74.12;99335.88;4992702;28;20065;-55
2022/06/09 01:00:51;;;;;;;10.80;4.20;;;;;;;14.73;74.02;99336.75;4992734;28;20100;-54
2022/06/09 01:03:42;;;;;;;9.70;3.97;;;;;;;14.72;74.02;99348.06;4992448;28;20065;-55
2022/06/09 01:06:52;;;;;;;11.20;3.88;;;;;;;14.72;74.03;99353.28;4992517;28;20478;-56
2022/06/09 01:09:37;;;;;;;10.98;3.58;;;;;;;14.73;74.26;99348.91;4993203;28;20059;-57
2022/06/09 01:12:20;;;;;;;;;;;;;;;14.70;73.98;99357.63;4993053;28;20049;-56
2022/06/09 01:15:05;;;;;;;9.82;4.13;;;;;;;14.70;74.21;99349.81;4993569;28;19975;-54
2022/06/09 01:18:18;;;;;;;14.25;4.22;;;;;;;14.70;74.21;99362.00;4993220;28;20069;-54
2022/06/09 01:21:36;;;;;;;15.18;3.63;;;;;;;14.70;74.07;99360.25;4993539;28;20473;-54
2022/06/09 01:24:26;;;;;;;17.13;5.32;;;;;;;14.66;74.12;99357.66;4993090;28;20553;-55
2022/06/09 01:27:48;;;;;;;19.00;5.35;;;;;;;14.69;74.11;99357.66;4993678;28;20161;-55
2022/06/09 01:30:38;;;;;;;15.35;4.80;;;;;;;14.68;74.07;99356.78;4996863;28;20536;-55
2022/06/09 01:33:40;;;;;;;9.70;4.60;;;;;;;14.68;74.00;99363.75;4996792;28;20118;-55
2022/06/09 01:36:36;;;;;;;14.23;5.07;;;;;;;14.68;74.24;99363.75;4995930;28;20088;-54
2022/06/09 01:39:50;;;;;;;10.40;3.90;;;;;;;14.67;74.12;99364.63;4995828;28;20402;-55
2022/06/09 01:42:40;;;;;;;13.48;4.70;;;;;;;14.68;73.99;99369.81;4995244;28;20054;-54
2022/06/09 01:45:49;;;;;;;16.38;4.60;;;;;;;14.67;74.10;99369.81;4995899;28;20150;-55
2022/06/09 01:48:35;;;;;;;15.10;5.15;;;;;;;14.68;74.22;99371.59;4995679;28;20044;-54
2022/06/09 01:51:22;;;;;;;11.95;4.38;;;;;;;14.68;73.99;99366.38;4995577;28;20057;-57
2022/06/09 01:54:18;;;;;;;16.60;4.97;;;;;;;14.68;74.04;99374.19;4996028;28;20057;-56
2022/06/09 01:57:26;;;;;;;13.55;4.60;;;;;;;14.66;74.16;99378.53;4995874;28;20053;-55
2022/06/09 02:00:15;;;;;;;15.68;5.10;;;;;;;14.66;74.16;99376.78;4995680;28;20048;-56
2022/06/09 02:03:08;;;;;;;23.83;5.57;;;;;;;14.66;74.18;99381.97;4995341;28;20060;-56
2022/06/09 02:05:55;;;;;;;16.67;4.85;;;;;;;14.66;74.31;99383.75;4995306;28;20054;-56
2022/06/09 02:08:39;;;;;;;16.88;4.65;;;;;;;14.64;74.20;99372.47;4995513;28;20069;-56
2022/06/09 02:11:23;;;;;;;15.75;4.75;;;;;;;14.65;74.13;99388.09;4995737;28;20050;-56
2022/06/09 02:14:07;;;;;;;16.00;4.68;;;;;;;14.67;74.24;99378.50;4995194;28;20478;-56
2022/06/09 02:16:51;;;;;;;14.77;5.55;;;;;;;14.66;74.18;99383.75;4996356;28;20446;-56
2022/06/09 02:19:37;;;;;;;;;;;;;;;14.65;74.13;99389.84;4995566;28;20156;-56
2022/06/09 02:22:24;;;;;;;18.52;5.15;;;;;;;14.65;74.21;99387.22;4995263;28;19920;-56
2022/06/09 02:25:09;;;;;;;17.60;5.10;;;;;;;14.66;74.57;99396.78;4981345;28;20196;-56
2022/06/09 02:27:53;;;;;;;15.02;4.78;;;;;;;14.65;74.21;99393.28;4995868;28;20049;-56
2022/06/09 02:30:43;;;;;;;14.35;5.15;;;;;;;14.65;74.34;99400.28;4996006;28;20077;-56
2022/06/09 02:33:29;;;;;;;11.65;4.50;;;;;;;14.66;74.69;99405.47;4996156;28;20145;-56
2022/06/09 02:36:14;;;;;;;17.55;5.82;;;;;;;14.65;74.27;99403.72;4995671;28;20048;-56
2022/06/09 02:38:59;;;;;;;17.90;5.45;;;;;;;14.67;74.30;99407.19;4994391;28;20052;-56
2022/06/09 02:41:43;;;;;;;15.23;5.07;;;;;;;14.65;73.95;99408.94;4995372;28;20053;-56
2022/06/09 02:44:27;;;;;;;21.48;6.05;;;;;;;14.65;74.29;99411.56;4995321;28;20049;-56
2022/06/09 02:47:13;;;;;;;16.90;6.13;;;;;;;14.66;74.04;99417.66;4995622;28;20049;-55
2022/06/09 02:49:57;;;;;;;22.80;5.47;;;;;;;14.66;74.26;99412.44;4994645;28;20559;-57
2022/06/09 02:52:41;;;;;;;19.63;6.32;;;;;;;14.65;74.14;99410.69;4996150;28;20092;-56
2022/06/09 02:55:27;;;;;;;17.75;5.15;;;;;;;14.65;74.20;99421.97;4995490;28;20093;-56
2022/06/09 02:58:12;;;;;;;19.67;5.40;;;;;;;14.66;74.09;99421.09;4994343;28;20041;-55
2022/06/09 03:00:56;;;;;;;18.27;5.53;;;;;;;14.67;74.27;99416.78;4994792;28;20109;-56
2022/06/09 03:03:40;;;;;;;16.85;5.72;;;;;;;14.62;74.28;99416.81;4994426;28;20120;-56
2022/06/09 03:06:24;;;;;;;15.63;5.50;;;;;;;14.62;74.28;99422.03;4995357;28;20045;-54
2022/06/09 03:09:08;;;;;;;21.58;5.30;;;;;;;14.63;74.28;99423.78;4994971;28;20402;-54
2022/06/09 03:11:52;;;;;;;18.70;5.97;;;;;;;14.62;74.29;99424.66;4994463;28;20076;-54
2022/06/09 03:14:37;;;;;;;13.65;5.38;;;;;;;14.61;74.32;99423.78;4993812;28;20532;-55
2022/06/09 03:17:25;;;;;;;18.35;6.50;;;;;;;14.64;74.25;99427.22;4994351;28;20560;-56
2022/06/09 03:20:14;;;;;;;26.33;5.72;;;;;;;14.62;73.99;99433.31;4995179;28;20105;-55
2022/06/09 03:22:58;;;;;;;13.63;5.47;;;;;;;14.61;74.08;99434.19;4993686;28;20045;-54
2022/06/09 03:25:43;;;;;;;17.40;5.07;;;;;;;14.61;74.12;99443.78;4995024;28;20414;-54
2022/06/09 03:28:28;;;;;;;15.70;5.88;;;;;;;14.60;74.12;99449.88;4993730;28;20126;-54
2022/06/09 03:31:12;;;;;;;16.85;5.32;;;;;;;14.60;74.31;99444.66;4995216;28;20045;-54
2022/06/09 03:33:56;;;;;;;;;;;;;;;14.58;74.26;99449.88;4995200;28;20056;-55
2022/06/09 03:36:43;;;;;;;17.25;5.57;;;;;;;14.58;74.21;99454.22;4993940;28;19960;-56
2022/06/09 03:39:29;;;;;;;17.05;5.95;;;;;;;14.58;74.17;99460.28;4993839;28;20076;-54
2022/06/09 03:42:14;;;;;;;16.45;5.07;;;;;;;14.58;74.32;99462.91;4994210;28;20045;-55
2022/06/09 03:44:58;;;;;;;10.55;4.25;;;;;;;14.58;74.23;99467.28;4994379;28;20050;-54
2022/06/09 03:47:42;;;;;;;15.75;5.72;;;;;;;14.59;74.28;99477.69;4994268;28;20077;-55
2022/06/09 03:50:27;;;;;;;22.10;6.53;;;;;;;14.58;74.49;99475.94;4992555;28;20124;-55
2022/06/09 03:53:11;;;;;;;14.70;4.70;;;;;;;14.59;74.09;99480.28;4993759;28;20553;-55
2022/06/09 03:55:57;;;;;;;19.90;6.00;;;;;;;14.59;74.15;99480.28;4994700;28;20081;-55
2022/06/09 03:58:42;;;;;;;14.13;5.55;;;;;;;14.60;74.09;99484.63;4993642;28;20053;-54
2022/06/09 04:01:29;;;;;;;14.95;4.90;;;;;;;14.60;74.08;99491.59;4993702;28;20057;-59
2022/06/09 04:04:13;;;;;;;16.10;5.60;;;;;;;14.58;74.20;99491.59;4993402;28;20108;-55
2022/06/09 04:06:58;;;;;;;19.27;6.00;;;;;;;14.58;74.20;99494.19;4994316;28;20055;-54
2022/06/09 04:09:45;;;;;;;17.48;4.85;;;;;;;14.58;74.10;99488.13;4993070;28;20051;-54
2022/06/09 04:12:35;;;;;;;17.42;5.63;;;;;;;14.59;74.04;99492.47;4993316;28;20049;-54
2022/06/09 04:15:20;;;;;;;14.40;4.57;;;;;;;14.58;74.05;99501.16;4993106;28;20061;-54
2022/06/09 04:18:04;;;;;;;14.15;5.28;;;;;;;14.59;74.18;99501.16;4993455;28;20571;-54
2022/06/09 04:20:48;;;;;;;21.60;6.10;;;;;;;14.58;74.17;99506.38;4993534;28;20444;-54
2022/06/09 04:23:32;;;;;;;16.50;6.15;;;;;;;14.55;74.14;99499.47;4994513;28;20061;-54
2022/06/09 04:26:21;;;;;;;12.10;4.65;;;;;;;14.54;74.03;99508.16;4994327;28;20420;-55
2022/06/09 04:29:07;;;;;;;14.82;5.03;;;;;;;14.57;74.14;99515.09;4994072;28;20065;-54
2022/06/09 04:31:51;;;;;;;17.25;4.97;;;;;;;14.56;74.15;99514.19;4993217;28;20049;-54
2022/06/09 04:34:38;;;;;;;17.85;5.45;;;;;;;14.57;74.14;99513.31;4993303;28;20125;-55
2022/06/09 04:37:59;;;;;;;13.43;5.43;;;;;;;14.57;74.12;99520.31;4993345;28;20044;-56
2022/06/09 04:40:34;;;;;;;25.30;5.38;;;;;;;14.55;74.14;99520.31;4993523;28;20096;-54
2022/06/09 04:43:18;;;;;;;15.07;6.03;;;;;;;14.52;74.04;99520.34;4993065;28;20069;-55
2022/06/09 04:46:04;;;;;;;10.82;4.60;;;;;;;14.54;73.93;99526.41;4994266;28;20077;-55
2022/06/09 04:48:48;;;;;;;18.75;5.22;;;;;;;14.53;74.23;99529.91;4992770;28;20049;-54
2022/06/09 04:51:32;;;;;;;;;;;;;;;14.53;74.05;99534.22;4993859;28;20100;-54
2022/06/09 04:54:16;;;;;;;10.30;4.45;;;;;;;14.53;74.42;99537.72;4993635;28;19972;-54
2022/06/09 04:57:00;;;;;;;18.23;5.97;;;;;;;14.53;74.13;99542.94;4993791;28;20405;-54
2022/06/09 04:59:47;;;;;;;13.27;5.32;;;;;;;14.52;74.25;99543.81;4993559;28;20100;-56
2022/06/09 05:02:31;;;;;;;20.85;4.63;;;;;;;14.52;74.27;99550.75;4994833;28;20073;-56
2022/06/09 05:05:20;;;;;;;;;;;;;;;14.51;73.97;99554.25;4997325;28;20062;-56
2022/06/09 05:08:05;;;;;;;16.40;5.57;;;;;;;14.50;74.29;99561.22;4996496;28;19968;-57
2022/06/09 05:10:49;;;;;;;17.33;5.32;;;;;;;14.50;74.06;99566.41;4996744;28;20069;-54
2022/06/09 05:13:36;;;;;;;17.13;5.13;;;;;;;14.48;74.28;99565.56;4997219;28;20163;-54
2022/06/09 05:16:20;;;;;;;21.00;5.25;;;;;;;14.46;74.20;99575.13;4997085;28;20049;-54
2022/06/09 05:19:07;;;;;;;15.25;5.57;;;;;;;14.44;74.51;99572.56;4997288;28;20096;-55
2022/06/09 05:21:51;;;;;;;18.70;5.65;;;;;;;14.46;74.16;99576.03;4996125;28;20046;-55
2022/06/09 05:24:35;;;;;;;22.70;5.40;;;;;;;14.45;74.18;99576.91;4995803;28;20517;-55
2022/06/09 05:27:20;;;;;;;13.82;5.50;;;;;;;14.45;74.35;99582.09;4997263;28;20057;-55
2022/06/09 05:30:08;;;;;;;20.85;5.47;;;;;;;14.45;74.11;99589.03;4996667;28;20085;-55
2022/06/09 05:32:57;;;;;;;21.52;5.18;;;;;;;14.44;74.13;99596.00;4995971;28;20433;-55
2022/06/09 05:35:41;;;;;;;16.50;4.95;;;;;;;14.45;74.28;99591.66;4995879;28;20053;-54
2022/06/09 05:44:51;;;;;;;13.50;4.43;;;;;;;14.43;74.15;99609.03;4996652;28;20138;-54
2022/06/09 05:47:36;;;;;;;16.05;5.63;;;;;;;14.42;74.23;99618.63;4996573;28;20065;-55
2022/06/09 05:50:20;;;;;;;17.48;4.97;;;;;;;14.42;74.15;99621.22;4996575;28;20410;-55
2022/06/09 05:53:05;;;;;;;12.52;4.72;;;;;;;14.43;74.27;99622.09;4995595;28;20057;-55
2022/06/09 05:55:52;;;;;;;19.05;4.97;;;;;;;14.41;74.10;99624.72;4995573;28;20084;-54
2022/06/09 05:58:36;;;;;;;18.80;5.60;;;;;;;14.43;74.15;99628.19;4995405;28;20080;-55
2022/06/09 06:01:21;;;;;;;;;;;;;;;14.42;74.11;99622.94;4997303;28;20096;-54
2022/06/09 06:04:07;;;;;;;17.02;5.95;;;;;;;14.42;74.21;99631.66;4996774;28;20023;-54
2022/06/09 06:06:51;;;;;;;18.45;5.63;;;;;;;14.43;74.31;99637.72;4995533;28;20057;-54
2022/06/09 06:09:38;;;;;;;17.95;4.75;;;;;;;14.44;74.35;99629.03;4996060;28;20077;-54
2022/06/09 06:12:22;;;;;;;32.55;6.43;;;;;;;14.46;74.35;99632.50;4995738;28;20053;-55
2022/06/09 06:15:09;;;;;;;16.40;5.40;;;;;;;14.46;74.32;99635.09;4996058;28;20089;-55
2022/06/09 06:17:56;;;;;;;23.27;5.70;;;;;;;14.46;74.17;99638.59;4995274;28;20108;-55
2022/06/09 06:20:43;;;;;;;19.75;6.05;;;;;;;14.45;74.33;99649.91;4995445;28;20457;-54
2022/06/09 06:23:30;;;;;;;19.13;5.65;;;;;;;14.45;74.21;99657.72;4994935;28;20053;-55
2022/06/09 06:26:18;;;;;;;21.98;6.07;;;;;;;14.44;74.32;99650.78;4995046;28;20410;-54
2022/06/09 06:29:05;;;;;;;15.35;6.00;;;;;;;14.45;74.43;99657.72;4996251;28;20139;-54
2022/06/09 06:31:50;;;;;;;21.38;5.43;;;;;;;14.44;74.28;99665.53;4994877;28;20100;-54
2022/06/09 06:34:34;;;;;;;18.80;5.38;;;;;;;14.45;74.44;99667.25;4995143;28;20057;-55
2022/06/09 06:37:24;;;;;;;34.47;8.50;;;;;;;14.45;74.20;99669.88;4995782;28;20044;-55
2022/06/09 06:40:13;;;;;;;21.45;6.88;;;;;;;14.45;74.51;99675.97;4995351;28;20077;-55
2022/06/09 06:43:03;;;;;;;20.52;5.80;;;;;;;14.47;74.25;99675.94;4994999;28;20053;-54
2022/06/09 06:45:51;;;;;;;15.90;5.68;;;;;;;14.48;74.27;99676.81;4994613;28;20054;-55
2022/06/09 06:48:38;;;;;;;17.30;5.78;;;;;;;14.50;74.42;99680.25;4995493;28;20077;-55
2022/06/09 06:51:23;;;;;;;24.58;6.65;;;;;;;14.50;74.39;99678.53;4995326;28;20173;-55
2022/06/09 06:54:08;;;;;;;20.40;6.78;;;;;;;14.51;74.41;99690.69;4994454;28;20651;-54
2022/06/09 06:56:52;;;;;;;20.20;6.78;;;;;;;14.51;74.56;99684.59;4994088;28;20112;-54
2022/06/09 06:59:37;;;;;;;21.00;7.45;;;;;;;14.52;74.47;99692.44;4994429;28;20060;-54
2022/06/09 07:02:26;;;;;;;;;;;;;;;14.51;74.40;99701.13;4995743;28;20113;-54
2022/06/09 07:05:10;;;;;;;15.70;6.32;;;;;;;14.51;74.51;99703.75;4994652;28;20281;-54
2022/06/09 07:07:56;;;;;;;25.38;6.50;;;;;;;14.51;74.41;99708.97;4995459;28;20053;-54
2022/06/09 07:10:40;;;;;;;16.45;6.20;;;;;;;14.52;74.46;99708.09;4994225;28;20099;-56
2022/06/09 07:13:28;;;;;;;22.13;7.38;;;;;;;14.52;74.64;99721.13;4993719;28;20045;-57
2022/06/09 07:16:15;;;;;;;16.45;6.43;;;;;;;14.51;74.41;99726.31;4994306;28;20101;-56
2022/06/09 07:19:01;;;;;;;18.92;7.18;;;;;;;14.52;74.50;99723.72;4994986;28;20516;-57
2022/06/09 07:21:46;;;;;;;20.70;6.93;;;;;;;14.53;74.45;99728.06;4994323;28;20057;-57
2022/06/09 07:24:33;;;;;;;;;;;;;;;14.50;74.51;99716.75;4995040;28;20046;-56
2022/06/09 07:27:17;;;;;;;27.13;9.27;;;;;;;14.50;74.22;99730.69;4993851;28;19925;-56
2022/06/09 07:30:01;;;;;;;16.33;7.85;;;;;;;14.52;74.51;99731.56;4994765;28;20508;-57
2022/06/09 07:32:46;;;;;;;;;;;;;;;14.50;74.39;99735.91;4994703;28;20117;-56
2022/06/09 07:35:32;;;;;;;18.90;7.50;;;;;;;14.50;74.44;99735.91;4993865;28;20302;-56
2022/06/09 07:38:16;;;;;;;22.85;7.70;;;;;;;14.51;74.36;99742.84;4994206;28;20128;-56
2022/06/09 07:41:01;;;;;;;;;;;;;;;14.50;74.51;99742.84;4994853;28;20076;-56
2022/06/09 07:43:45;;;;;;;18.98;8.27;;;;;;;14.50;74.46;99746.34;4994666;28;19939;-56
2022/06/09 07:46:29;;;;;;;25.33;9.15;;;;;;;14.51;74.50;99757.63;4994520;28;20108;-56
2022/06/09 07:49:13;;;;;;;;;;;;;;;14.51;74.48;99761.09;4994344;28;20425;-56
2022/06/09 07:51:57;;;;;;;20.25;8.15;;;;;;;14.51;74.26;99761.09;4993784;28;19928;-56
2022/06/09 07:54:41;;;;;;;17.88;8.95;;;;;;;14.52;74.57;99761.97;4994601;28;20553;-56
2022/06/09 07:57:26;;;;;;;22.58;8.55;;;;;;;14.52;74.51;99770.66;4993742;28;20154;-56
2022/06/09 08:00:11;;;;;;;23.33;8.57;;;;;;;14.53;74.50;99768.91;4994323;28;20061;-56
2022/06/09 08:02:55;;;;;;;23.85;9.75;;;;;;;14.51;74.51;99774.16;4993267;28;20058;-56
2022/06/09 08:05:39;;;;;;;13.05;7.75;;;;;;;14.53;74.24;99784.56;4994618;28;20064;-56
2022/06/09 08:08:25;;;;;;;20.33;8.15;;;;;;;14.53;74.33;99782.84;4994228;28;20134;-56
2022/06/09 08:11:09;;;;;;;21.92;8.70;;;;;;;14.54;74.64;99789.78;4994321;28;20467;-56
2022/06/09 08:13:55;;;;;;;19.73;9.18;;;;;;;14.53;74.34;99792.38;4994551;28;20046;-56
2022/06/09 08:16:40;;;;;;;19.80;8.73;;;;;;;14.52;74.31;99791.53;4993519;28;20516;-56
2022/06/09 08:19:25;;;;;;;20.48;8.93;;;;;;;14.52;74.49;99801.97;4993067;28;20080;-56
2022/06/09 08:22:09;;;;;;;23.35;8.77;;;;;;;14.53;74.32;99805.41;4993933;28;20041;-56
2022/06/09 08:24:53;;;;;;;27.70;9.38;;;;;;;14.53;74.58;99802.81;4993892;28;20100;-56
2022/06/09 08:27:38;;;;;;;;;;;;;;;14.52;74.51;99809.78;4994707;28;20568;-56
2022/06/09 08:30:22;;;;;;;20.60;8.55;;;;;;;14.52;74.68;99809.78;4994077;28;19972;-56
2022/06/09 08:33:06;;;;;;;20.13;8.93;;;;;;;14.53;74.49;99813.25;4993165;28;20575;-56
2022/06/09 08:35:51;;;;;;;21.42;9.27;;;;;;;14.54;74.41;99823.69;4993964;28;20073;-56
2022/06/09 08:38:39;;;;;;;17.10;8.88;;;;;;;14.56;74.84;99823.66;4997459;28;20048;-56
2022/06/09 08:41:35;;;;;;;17.58;8.40;;;;;;;14.56;74.74;99815.84;4997299;28;20085;-56
2022/06/09 08:44:27;;;;;;;24.77;9.13;;;;;;;14.57;74.75;99822.78;4997763;28;20054;-56
2022/06/09 08:47:29;;;;;;;17.90;8.23;;;;;;;14.58;74.54;99829.75;4997266;28;20053;-55
2022/06/09 08:50:28;;;;;;;23.75;8.43;;;;;;;14.59;74.74;99831.47;4996796;28;20085;-56
2022/06/09 08:53:21;;;;;;;20.58;7.97;;;;;;;14.59;74.76;99834.09;4998094;28;20072;-56
2022/06/09 08:56:27;;;;;;;14.18;6.95;;;;;;;14.59;74.65;99834.94;4996571;28;20205;-56
2022/06/09 08:59:15;;;;;;;20.20;8.63;;;;;;;14.60;74.47;99831.47;4997007;28;20080;-56
2022/06/09 09:02:03;;;;;;;16.10;7.07;;;;;;;14.60;74.57;99838.44;4996485;28;20105;-60
2022/06/09 09:04:53;;;;;;;15.80;8.30;;;;;;;14.62;74.76;99841.91;4996956;28;20584;-56
2022/06/09 09:07:42;;;;;;;16.73;7.20;;;;;;;14.61;74.52;99841.03;4996487;28;20050;-56
2022/06/09 09:10:40;;;;;;;13.55;6.80;;;;;;;14.62;74.53;99853.19;4996526;28;20044;-56
2022/06/09 09:13:31;;;;;;;19.13;7.40;;;;;;;14.63;74.67;99848.84;4996597;28;20096;-56
2022/06/09 09:16:20;;;;;;;17.38;7.68;;;;;;;14.64;74.63;99854.94;4996762;28;20100;-56
2022/06/09 09:19:23;;;;;;;16.85;6.85;;;;;;;14.65;74.75;99862.72;4996253;28;20057;-56
2022/06/09 09:22:23;;;;;;;20.33;6.47;;;;;;;14.65;74.70;99862.72;4997112;28;20053;-56
2022/06/09 09:25:07;;;;;;;15.50;6.68;;;;;;;14.65;74.62;99860.13;4996035;28;20049;-56
2022/06/09 09:28:15;;;;;;;11.95;6.57;;;;;;;14.65;74.58;99861.88;4997544;28;20112;-55
2022/06/09 09:31:37;;;;;;;16.10;6.65;;;;;;;14.66;74.39;99863.63;4996969;28;20108;-55
2022/06/09 09:34:34;;;;;;;14.05;6.78;;;;;;;14.65;74.37;99869.72;4986339;28;20048;-56
2022/06/09 09:37:38;;;;;;;14.45;6.18;;;;;;;14.66;74.69;99864.47;4997250;28;20132;-56
2022/06/09 09:40:36;;;;;;;20.83;6.77;;;;;;;14.66;74.36;99879.25;4996178;28;20398;-56
2022/06/09 09:43:25;;;;;;;17.23;6.05;;;;;;;14.66;74.50;99874.06;4996044;28;20081;-56
2022/06/09 09:46:25;;;;;;;16.08;6.53;;;;;;;14.67;74.58;99875.78;4995651;28;20057;-56
2022/06/09 09:49:22;;;;;;;11.35;6.00;;;;;;;14.68;74.55;99875.81;4994510;28;20049;-56
2022/06/09 09:52:45;;;;;;;18.08;7.28;;;;;;;14.68;74.43;99875.81;4995616;28;20072;-56
2022/06/09 09:55:49;;;;;;;13.57;6.45;;;;;;;14.70;74.58;99878.44;4995651;28;20037;-56
2022/06/09 09:58:48;;;;;;;14.38;5.75;;;;;;;14.69;74.53;99884.50;4995447;28;20062;-56
2022/06/09 10:08:35;;;;;;;17.40;6.65;;;;;;;14.70;74.49;99894.06;4996562;28;20536;-56
2022/06/09 10:08:51;;;;;;;13.57;5.88;;;;;;;14.71;74.55;99894.06;4996491;28;20402;-56
2022/06/09 10:14:32;;;;;;;16.00;6.60;;;;;;;14.71;74.36;99899.28;4996257;28;20081;-56
2022/06/09 10:17:35;;;;;;;10.90;5.78;;;;;;;14.72;74.30;99892.31;4996626;28;20045;-56
2022/06/09 10:20:25;;;;;;;10.98;6.65;;;;;;;14.72;74.44;99895.78;4996413;28;20500;-56
2022/06/09 10:23:09;;;;;;;12.60;5.90;;;;;;;14.71;74.37;99893.19;4995421;28;20046;-56
2022/06/09 10:26:41;;;;;;;14.23;4.93;;;;;;;14.74;74.36;99899.28;4995965;28;20050;-56
2022/06/09 10:29:51;;;;;;;9.48;5.22;;;;;;;14.77;74.43;99907.09;4994122;28;20096;-56
2022/06/09 10:32:54;;;;;;;12.32;4.75;;;;;;;14.77;74.41;99898.38;4996418;28;20159;-56
2022/06/09 10:35:50;;;;;;;10.90;5.28;;;;;;;14.79;74.19;99909.69;4994847;28;20154;-56
2022/06/09 10:38:48;;;;;;;13.75;5.80;;;;;;;14.78;74.27;99910.56;4995013;28;20556;-55
2022/06/09 10:41:42;;;;;;;14.98;6.20;;;;;;;14.78;74.34;99910.56;4995076;28;20401;-56
2022/06/09 10:44:38;;;;;;;11.38;5.97;;;;;;;14.77;74.24;99914.91;4995813;28;20069;-58
2022/06/09 10:57:23;;;;;;;11.10;5.13;;;;;;;14.81;74.18;99920.97;4995788;28;20560;-58
2022/06/09 11:00:13;;;;;;;;;;;;;;;14.82;74.26;99917.50;4995461;28;20166;-56
2022/06/09 11:03:02;;;;;;;11.13;4.93;;;;;;;14.88;74.11;99924.44;4994323;28;19929;-56
2022/06/09 11:06:12;;;;;;;10.23;4.95;;;;;;;14.87;74.04;99920.94;4995229;28;20509;-56
2022/06/09 11:09:20;;;;;;;8.98;5.57;;;;;;;14.90;74.20;99922.69;4995430;28;20068;-56
2022/06/09 11:12:39;;;;;;;9.82;5.22;;;;;;;14.90;74.23;99931.38;4994625;28;20053;-56
2022/06/09 11:15:37;;;;;;;17.70;5.30;;;;;;;14.90;74.28;99928.75;4994576;28;20128;-56
2022/06/09 11:18:39;;;;;;;11.25;5.55;;;;;;;14.91;74.16;99927.03;4994548;28;20053;-56
2022/06/09 11:21:45;;;;;;;6.88;4.07;;;;;;;14.94;74.18;99936.59;4994443;28;20120;-56
2022/06/09 11:24:36;;;;;;;10.38;4.85;;;;;;;14.98;74.04;99930.50;4993860;28;20417;-56
2022/06/09 11:27:49;;;;;;;11.07;4.55;;;;;;;14.96;73.96;99930.47;4994069;28;20097;-56
2022/06/09 11:30:57;;;;;;;10.48;5.00;;;;;;;14.96;74.15;99935.69;4993412;28;20044;-56
2022/06/09 11:33:50;;;;;;;10.90;5.57;;;;;;;14.98;74.04;99948.75;4994245;28;20053;-56
2022/06/09 11:36:46;;;;;;;13.10;5.35;;;;;;;14.97;74.15;99958.31;4994094;28;20053;-55
2022/06/09 11:39:55;;;;;;;11.57;5.22;;;;;;;14.98;74.05;99956.59;4993965;28;20529;-56
2022/06/09 11:43:10;;;;;;;9.38;4.80;;;;;;;14.99;74.20;99968.75;4994726;28;20057;-56
2022/06/09 11:46:00;;;;;;;8.32;4.13;;;;;;;15.00;73.79;99987.00;4993838;28;20069;-56
2022/06/09 11:48:52;;;;;;;9.13;3.90;;;;;;;15.00;73.90;99994.84;4993911;28;20105;-56
2022/06/09 11:51:41;;;;;;;6.70;3.20;;;;;;;14.97;73.78;100004.44;4993794;28;20093;-56
2022/06/09 11:54:57;;;;;;;6.63;3.45;;;;;;;14.94;73.73;100020.97;4993555;28;20057;-55
2022/06/09 11:57:45;;;;;;;7.53;3.08;;;;;;;14.92;73.79;100022.72;4993230;28;20050;-56
2022/06/09 12:00:39;;;;;;;4.70;2.72;;;;;;;14.89;73.68;100028.78;4994747;28;20057;-55
2022/06/09 12:03:41;;;;;;;7.05;3.38;;;;;;;14.88;73.71;100026.19;4994388;28;20093;-54
2022/06/09 12:06:51;;;;;;;7.90;2.80;;;;;;;14.87;73.65;100027.06;4993933;28;20053;-55
2022/06/09 12:10:06;;;;;;;6.10;2.65;;;;;;;14.85;73.60;100015.75;4993341;28;20049;-55
2022/06/09 12:13:23;;;;;;;10.05;2.97;;;;;;;14.83;73.64;100017.50;4993479;28;20049;-54
2022/06/09 12:16:38;;;;;;;5.85;3.40;;;;;;;14.81;73.87;100017.50;4993168;28;20092;-54
2022/06/09 12:19:32;;;;;;;4.03;2.70;;;;;;;14.82;73.81;100019.25;4993063;28;20081;-56
2022/06/09 12:22:40;;;;;;;7.45;3.22;;;;;;;14.82;73.86;100011.44;4993017;28;20118;-55
2022/06/09 12:25:37;;;;;;;4.53;2.97;;;;;;;14.82;73.94;100005.31;4993896;28;20116;-56
2022/06/09 12:28:52;;;;;;;6.93;3.20;;;;;;;14.83;74.33;100002.72;4993381;28;20513;-56
2022/06/09 12:32:02;;;;;;;7.60;3.05;;;;;;;14.83;73.92;100000.13;4993315;28;20461;-56
2022/06/09 12:34:51;;;;;;;4.40;3.75;;;;;;;14.85;74.06;100002.72;4994330;28;20540;-56
2022/06/09 12:37:37;;;;;;;4.72;3.03;;;;;;;14.86;73.92;100007.94;4992792;28;20125;-56
2022/06/09 12:40:44;;;;;;;6.10;2.97;;;;;;;14.87;73.96;100004.44;4993258;28;20050;-56
2022/06/09 12:43:37;;;;;;;7.45;3.15;;;;;;;14.87;74.03;100008.81;4992847;28;20050;-56
2022/06/09 12:46:29;;;;;;;9.23;3.00;;;;;;;14.87;73.88;100014.00;4993924;28;20085;-56
2022/06/09 12:49:22;;;;;;;5.22;2.90;;;;;;;14.87;74.09;100014.00;4992907;28;20125;-56
2022/06/09 12:52:25;;;;;;;3.75;2.97;;;;;;;14.87;73.96;100022.69;4993664;28;20054;-56
2022/06/09 12:55:20;;;;;;;7.67;3.60;;;;;;;14.87;73.84;100024.44;4993240;28;20061;-56
2022/06/09 12:58:52;;;;;;;4.88;2.90;;;;;;;14.87;73.91;100024.44;4992481;28;20045;-56
2022/06/09 13:01:50;;;;;;;4.80;3.25;;;;;;;14.86;74.05;100022.72;4992569;28;20053;-55
2022/06/09 13:04:34;;;;;;;4.97;2.90;;;;;;;14.86;74.06;100030.53;4992858;28;20481;-57
2022/06/09 13:07:27;;;;;;;4.93;3.03;;;;;;;14.87;73.97;100040.09;4993898;28;20125;-56
2022/06/09 13:10:21;;;;;;;4.60;3.15;;;;;;;14.87;73.94;100040.09;4992743;28;20405;-56
2022/06/09 13:13:17;;;;;;;3.53;2.83;;;;;;;14.85;73.92;100040.13;4992488;28;20437;-55
2022/06/09 13:16:30;;;;;;;3.10;2.80;;;;;;;14.87;73.90;100056.63;4993596;28;20073;-54
2022/06/09 13:19:27;;;;;;;5.95;2.65;;;;;;;14.87;73.86;100063.59;4992425;28;20057;-56
2022/06/09 13:22:15;;;;;;;6.57;3.20;;;;;;;14.85;73.87;100066.22;4992946;28;20398;-54
2022/06/09 13:25:00;;;;;;;5.15;2.90;;;;;;;14.88;73.81;100067.94;4997238;28;20061;-54
2022/06/09 13:27:48;;;;;;;8.65;3.60;;;;;;;14.87;74.06;100067.06;4996466;28;20426;-54
2022/06/09 13:30:51;;;;;;;5.50;3.00;;;;;;;14.87;73.80;100064.44;4996243;28;20533;-54
2022/06/09 13:33:55;;;;;;;4.63;3.00;;;;;;;14.88;74.03;100065.34;4996108;28;20077;-55
2022/06/09 13:36:55;;;;;;;5.82;3.08;;;;;;;14.88;73.89;100071.41;4996276;28;20065;-55
2022/06/09 13:40:11;;;;;;;9.75;3.67;;;;;;;14.89;73.88;100074.91;4997177;28;20049;-54
2022/06/09 13:42:59;;;;;;;13.95;4.57;;;;;;;14.90;73.97;100072.28;4997116;28;20045;-55
2022/06/09 13:45:53;;;;;;;4.53;3.50;;;;;;;14.91;73.82;100068.78;4997248;28;20049;-54